Time;durP1;ratioP1;P1;durP2;ratioP2;P2;SDS_P1;SDS_P2;PMS_P1;PMS_P2;Temp;Humidity;BMP_temperature;BMP_pressure;BME280_temperature;BME280_humidity;BME280_pressure;Samples;Min_cycle;Max_cycle;Signal;HPM_P1;HPM_P2
2022/03/07 00:01:33;;;;;;;24.10;15.93;;;;;;;;;;4974132;28;20039;-46
2022/03/07 00:03:59;;;;;;;23.67;16.60;;;;;;;;;;4977094;28;20073;-46
2022/03/07 00:06:25;;;;;;;24.27;16.17;;;;;;;;;;4975833;28;20049;-46
2022/03/07 00:08:51;;;;;;;25.33;16.63;;;;;;;;;;4987915;28;20050;-47
2022/03/07 00:11:17;;;;;;;25.10;17.77;;;;;;;;;;4973894;28;20023;-45
2022/03/07 00:13:44;;;;;;;27.27;16.70;;;;;;;;;;4978354;28;20512;-49
2022/03/07 00:19:13;;;;;;;27.50;17.83;;;;;;;;;;4989197;28;20042;-45
2022/03/07 00:21:40;;;;;;;28.63;18.27;;;;;;;;;;4993020;28;20117;-45
2022/03/07 00:24:07;;;;;;;26.13;17.60;;;;;;;;;;4989289;28;20066;-47
2022/03/07 00:26:33;;;;;;;29.90;19.57;;;;;;;;;;4975172;28;20081;-45
2022/03/07 00:28:59;;;;;;;25.63;18.40;;;;;;;;;;4991262;28;20361;-45
2022/03/07 00:31:26;;;;;;;29.37;19.03;;;;;;;;;;4973761;28;20035;-46
2022/03/07 00:33:52;;;;;;;28.60;18.93;;;;;;;;;;4975761;28;20031;-46
2022/03/07 00:36:19;;;;;;;27.53;18.67;;;;;;;;;;4992891;28;20065;-48
2022/03/07 00:38:45;;;;;;;28.50;19.47;;;;;;;;;;4993133;28;20813;-45
2022/03/07 00:41:11;;;;;;;27.53;20.67;;;;;;;;;;4983335;28;20054;-45
2022/03/07 00:43:37;;;;;;;31.07;20.13;;;;;;;;;;4992996;28;20038;-45
2022/03/07 00:46:04;;;;;;;28.07;18.93;;;;;;;;;;4974137;28;20030;-46
2022/03/07 00:48:30;;;;;;;28.57;19.43;;;;;;;;;;4973436;28;20473;-46
2022/03/07 00:50:56;;;;;;;26.50;19.57;;;;;;;;;;4977246;28;20026;-45
2022/03/07 00:53:23;;;;;;;30.53;19.77;;;;;;;;;;4994810;28;20089;-46
2022/03/07 00:55:49;;;;;;;27.90;18.97;;;;;;;;;;4980530;28;20114;-45
2022/03/07 00:58:15;;;;;;;31.20;20.73;;;;;;;;;;4976886;28;20026;-45
2022/03/07 01:00:42;;;;;;;28.07;20.13;;;;;;;;;;4985653;28;20038;-45
2022/03/07 01:03:09;;;;;;;31.77;19.20;;;;;;;;;;4976523;28;20117;-45
2022/03/07 01:05:35;;;;;;;32.93;21.33;;;;;;;;;;4983065;28;20051;-45
2022/03/07 01:08:01;;;;;;;29.40;18.97;;;;;;;;;;4992409;28;20050;-45
2022/03/07 01:10:27;;;;;;;28.67;20.40;;;;;;;;;;4996356;28;20377;-47
2022/03/07 01:12:53;;;;;;;27.87;19.50;;;;;;;;;;4989752;28;20089;-45
2022/03/07 01:15:20;;;;;;;30.40;20.13;;;;;;;;;;4993796;28;20113;-46
2022/03/07 01:17:46;;;;;;;31.40;20.40;;;;;;;;;;4993916;28;20041;-46
2022/03/07 01:20:12;;;;;;;29.37;21.50;;;;;;;;;;4994296;28;20220;-45
2022/03/07 01:22:41;;;;;;;29.27;19.43;;;;;;;;;;4994741;28;20065;-47
2022/03/07 01:25:07;;;;;;;29.90;21.30;;;;;;;;;;4995451;28;20049;-49
2022/03/07 01:27:33;;;;;;;27.17;19.80;;;;;;;;;;4995788;28;20085;-46
2022/03/07 01:29:59;;;;;;;30.97;20.47;;;;;;;;;;4975389;28;20081;-45
2022/03/07 01:32:26;;;;;;;30.50;21.47;;;;;;;;;;4990378;28;20034;-46
2022/03/07 01:34:52;;;;;;;30.57;20.97;;;;;;;;;;4994270;28;20042;-46
2022/03/07 01:37:18;;;;;;;29.07;20.47;;;;;;;;;;4990322;28;21005;-47
2022/03/07 01:39:44;;;;;;;34.30;20.27;;;;;;;;;;4979301;28;20034;-44
2022/03/07 01:42:10;;;;;;;29.90;19.90;;;;;;;;;;4999349;28;20042;-45
2022/03/07 01:44:37;;;;;;;29.80;20.30;;;;;;;;;;4987581;28;20026;-45
2022/03/07 01:47:04;;;;;;;30.10;21.40;;;;;;;;;;4990030;28;20116;-46
2022/03/07 01:49:30;;;;;;;33.30;20.83;;;;;;;;;;4991714;28;20500;-45
2022/03/07 01:51:56;;;;;;;31.50;20.20;;;;;;;;;;5005872;28;20037;-47
2022/03/07 01:54:23;;;;;;;29.27;20.00;;;;;;;;;;4995684;28;20050;-45
2022/03/07 01:56:50;;;;;;;28.90;19.97;;;;;;;;;;5010656;28;20030;-45
2022/03/07 01:59:17;;;;;;;29.80;19.43;;;;;;;;;;4995655;28;20093;-47
2022/03/07 02:01:44;;;;;;;27.63;19.77;;;;;;;;;;4999879;28;20037;-45
2022/03/07 02:04:10;;;;;;;27.93;19.17;;;;;;;;;;4996379;28;20074;-45
2022/03/07 02:15:56;;;;;;;30.17;19.97;;;;;;;;;;4990785;28;20053;-45
2022/03/07 02:18:22;;;;;;;25.87;18.33;;;;;;;;;;4996484;28;20034;-45
2022/03/07 02:20:51;;;;;;;31.63;20.60;;;;;;;;;;4977782;28;20060;-46
2022/03/07 02:23:18;;;;;;;33.70;21.30;;;;;;;;;;4995150;28;20096;-45
2022/03/07 02:25:44;;;;;;;29.00;21.13;;;;;;;;;;5002791;28;20022;-46
2022/03/07 02:28:10;;;;;;;27.67;19.13;;;;;;;;;;5003775;28;20048;-48
2022/03/07 02:30:36;;;;;;;33.30;20.47;;;;;;;;;;4990046;28;20039;-49
2022/03/07 02:33:02;;;;;;;28.13;19.73;;;;;;;;;;4992723;28;20034;-47
2022/03/07 02:35:28;;;;;;;31.23;20.53;;;;;;;;;;4991110;28;20026;-46
2022/03/07 02:37:54;;;;;;;31.83;20.77;;;;;;;;;;5000988;28;20176;-45
2022/03/07 02:40:21;;;;;;;29.43;20.20;;;;;;;;;;4989549;28;20098;-48
2022/03/07 02:42:47;;;;;;;29.07;19.70;;;;;;;;;;4998625;28;20125;-46
2022/03/07 02:45:13;;;;;;;28.80;19.50;;;;;;;;;;4988449;28;20044;-45
2022/03/07 02:47:39;;;;;;;29.17;19.93;;;;;;;;;;4995699;28;20029;-46
2022/03/07 02:50:05;;;;;;;28.73;19.63;;;;;;;;;;4993909;28;20037;-48
2022/03/07 02:52:31;;;;;;;29.83;19.30;;;;;;;;;;4987545;28;20126;-45
2022/03/07 02:54:57;;;;;;;28.77;18.67;;;;;;;;;;4995896;28;20466;-45
2022/03/07 02:57:23;;;;;;;26.30;19.50;;;;;;;;;;4999706;28;20026;-45
2022/03/07 02:59:49;;;;;;;29.63;19.23;;;;;;;;;;4989315;28;20099;-46
2022/03/07 03:02:15;;;;;;;28.77;18.87;;;;;;;;;;4989461;28;20046;-45
2022/03/07 03:04:41;;;;;;;28.80;18.97;;;;;;;;;;4990823;28;20026;-45
2022/03/07 03:07:07;;;;;;;26.60;19.03;;;;;;;;;;4998161;28;20030;-45
2022/03/07 03:09:33;;;;;;;24.93;19.00;;;;;;;;;;4989703;28;20030;-45
2022/03/07 03:11:59;;;;;;;28.63;18.47;;;;;;;;;;4999142;28;20088;-45
2022/03/07 03:14:25;;;;;;;31.10;19.83;;;;;;;;;;5000017;28;20033;-45
2022/03/07 03:16:51;;;;;;;26.67;18.27;;;;;;;;;;4986605;28;20106;-45
2022/03/07 03:19:17;;;;;;;28.27;18.53;;;;;;;;;;5005446;28;20109;-45
2022/03/07 03:21:43;;;;;;;29.07;17.80;;;;;;;;;;4999504;28;20034;-45
2022/03/07 03:24:09;;;;;;;25.17;17.47;;;;;;;;;;5008666;28;20026;-45
2022/03/07 03:26:36;;;;;;;26.77;18.07;;;;;;;;;;4997147;28;20030;-45
2022/03/07 03:29:02;;;;;;;25.93;16.27;;;;;;;;;;4997686;28;20080;-46
2022/03/07 03:31:28;;;;;;;24.93;16.60;;;;;;;;;;4986925;28;20424;-45
2022/03/07 03:33:54;;;;;;;25.53;16.60;;;;;;;;;;4990232;28;20034;-45
2022/03/07 03:36:20;;;;;;;28.73;17.07;;;;;;;;;;4975412;28;20022;-45
2022/03/07 03:38:46;;;;;;;25.43;16.87;;;;;;;;;;4993290;28;20030;-45
2022/03/07 03:41:12;;;;;;;24.50;17.00;;;;;;;;;;5004610;28;20087;-45
2022/03/07 03:43:38;;;;;;;25.40;16.57;;;;;;;;;;4996733;28;20053;-45
2022/03/07 03:46:04;;;;;;;27.47;18.17;;;;;;;;;;4992425;28;20481;-45
2022/03/07 03:48:30;;;;;;;25.10;16.33;;;;;;;;;;5002175;28;20026;-45
2022/03/07 03:50:56;;;;;;;27.23;17.43;;;;;;;;;;4998374;28;20030;-45
2022/03/07 03:53:22;;;;;;;26.33;15.60;;;;;;;;;;5005697;28;20610;-46
2022/03/07 03:55:48;;;;;;;25.30;17.23;;;;;;;;;;4998260;28;20019;-44
2022/03/07 03:58:14;;;;;;;26.30;16.67;;;;;;;;;;5000880;28;20030;-45
2022/03/07 04:00:41;;;;;;;24.70;15.93;;;;;;;;;;4989992;28;20031;-46
2022/03/07 04:03:07;;;;;;;24.70;15.90;;;;;;;;;;4993516;28;20108;-44
2022/03/07 04:05:33;;;;;;;24.93;16.03;;;;;;;;;;4999555;28;20026;-45
2022/03/07 04:07:58;;;;;;;23.13;15.03;;;;;;;;;;4996261;28;20030;-45
2022/03/07 04:10:25;;;;;;;27.07;16.20;;;;;;;;;;4992190;28;20543;-45
2022/03/07 04:12:51;;;;;;;25.83;17.00;;;;;;;;;;4994605;28;20022;-46
2022/03/07 04:15:16;;;;;;;24.33;15.40;;;;;;;;;;4999492;28;20030;-48
2022/03/07 04:17:44;;;;;;;29.17;16.13;;;;;;;;;;4995090;28;20030;-46
2022/03/07 04:20:10;;;;;;;23.37;15.00;;;;;;;;;;4999667;28;20029;-46
2022/03/07 04:22:37;;;;;;;24.37;15.67;;;;;;;;;;4994331;28;20145;-51
2022/03/07 04:25:03;;;;;;;22.67;14.80;;;;;;;;;;4998558;28;20025;-47
2022/03/07 04:27:29;;;;;;;24.30;14.67;;;;;;;;;;4997324;28;20026;-47
2022/03/07 04:29:57;;;;;;;23.63;15.03;;;;;;;;;;4997802;28;20022;-50
2022/03/07 04:32:23;;;;;;;25.13;15.90;;;;;;;;;;4996495;28;20480;-48
2022/03/07 04:34:52;;;;;;;23.17;14.97;;;;;;;;;;5008307;28;20386;-46
2022/03/07 04:37:18;;;;;;;22.30;14.57;;;;;;;;;;4986547;28;20068;-46
2022/03/07 04:39:44;;;;;;;25.97;14.73;;;;;;;;;;5001806;28;20062;-46
2022/03/07 04:42:10;;;;;;;21.47;14.17;;;;;;;;;;5002492;28;20116;-46
2022/03/07 04:44:36;;;;;;;21.07;14.77;;;;;;;;;;4997009;28;20539;-46
2022/03/07 04:47:02;;;;;;;20.33;14.47;;;;;;;;;;4987229;28;20480;-45
2022/03/07 04:49:28;;;;;;;23.77;16.03;;;;;;;;;;5005268;28;20103;-45
2022/03/07 04:51:54;;;;;;;24.40;14.13;;;;;;;;;;5004379;28;20031;-45
2022/03/07 04:54:20;;;;;;;21.33;15.40;;;;;;;;;;4976272;28;20419;-45
2022/03/07 04:56:48;;;;;;;23.60;15.50;;;;;;;;;;4961033;28;20035;-45
2022/03/07 04:59:15;;;;;;;24.67;15.30;;;;;;;;;;4977975;28;20027;-45
2022/03/07 05:01:41;;;;;;;24.83;15.30;;;;;;;;;;4973068;28;20140;-46
2022/03/07 05:04:07;;;;;;;23.40;15.77;;;;;;;;;;4977303;28;20051;-46
2022/03/07 05:06:34;;;;;;;24.37;14.70;;;;;;;;;;4965517;28;20420;-45
2022/03/07 05:09:00;;;;;;;19.67;14.03;;;;;;;;;;4980118;28;20074;-46
2022/03/07 05:11:26;;;;;;;25.87;15.33;;;;;;;;;;4978994;28;20037;-46
2022/03/07 05:13:52;;;;;;;24.57;14.97;;;;;;;;;;4978232;28;20031;-46
2022/03/07 05:16:18;;;;;;;22.90;14.20;;;;;;;;;;4962059;28;20026;-46
2022/03/07 05:18:44;;;;;;;23.40;14.27;;;;;;;;;;4989598;28;20502;-46
2022/03/07 05:21:10;;;;;;;21.03;14.53;;;;;;;;;;4976072;28;20027;-46
2022/03/07 05:23:36;;;;;;;22.30;15.30;;;;;;;;;;4986099;28;20045;-45
2022/03/07 05:26:02;;;;;;;21.27;15.20;;;;;;;;;;4973369;28;20046;-45
2022/03/07 05:28:28;;;;;;;21.53;15.80;;;;;;;;;;4958297;28;20039;-47
2022/03/07 05:30:54;;;;;;;22.67;14.87;;;;;;;;;;4973123;28;20065;-47
2022/03/07 05:33:20;;;;;;;23.00;15.43;;;;;;;;;;4974174;28;20058;-47
2022/03/07 05:35:46;;;;;;;24.67;16.10;;;;;;;;;;4979868;28;20115;-46
2022/03/07 05:38:12;;;;;;;23.33;15.27;;;;;;;;;;4963275;28;20034;-45
2022/03/07 05:40:38;;;;;;;23.77;15.10;;;;;;;;;;4959783;28;20035;-46
2022/03/07 05:43:04;;;;;;;24.53;14.40;;;;;;;;;;4982640;28;20031;-46
2022/03/07 05:45:30;;;;;;;23.23;14.53;;;;;;;;;;4981919;28;20022;-45
2022/03/07 05:47:56;;;;;;;23.73;14.27;;;;;;;;;;4973099;28;20547;-45
2022/03/07 05:50:22;;;;;;;26.60;14.70;;;;;;;;;;4980694;28;20019;-46
2022/03/07 05:52:49;;;;;;;22.13;14.33;;;;;;;;;;4997335;28;20053;-44
2022/03/07 05:55:15;;;;;;;22.33;14.37;;;;;;;;;;4983183;28;20480;-45
2022/03/07 05:57:41;;;;;;;21.93;14.83;;;;;;;;;;5000264;28;20034;-45
2022/03/07 06:00:08;;;;;;;25.83;14.77;;;;;;;;;;4984805;28;20111;-45
2022/03/07 06:02:34;;;;;;;20.50;13.33;;;;;;;;;;4992430;28;20046;-48
2022/03/07 06:05:01;;;;;;;25.07;15.50;;;;;;;;;;4978113;28;20039;-45
2022/03/07 06:07:27;;;;;;;20.47;13.20;;;;;;;;;;5002811;28;20039;-45
2022/03/07 06:09:53;;;;;;;20.43;14.00;;;;;;;;;;4991698;28;20021;-46
2022/03/07 06:12:31;;;;;;;18.83;13.17;;;;;;;;;;5006151;28;20041;-46
2022/03/07 06:14:57;;;;;;;23.50;14.47;;;;;;;;;;4971610;28;20137;-46
2022/03/07 06:17:23;;;;;;;18.17;12.67;;;;;;;;;;4986164;28;20036;-45
2022/03/07 06:19:49;;;;;;;20.13;13.07;;;;;;;;;;4997162;28;20104;-46
2022/03/07 06:22:15;;;;;;;28.57;14.80;;;;;;;;;;4998622;28;20039;-44
2022/03/07 06:24:41;;;;;;;19.83;13.27;;;;;;;;;;4991245;28;20045;-46
2022/03/07 06:27:07;;;;;;;21.77;14.43;;;;;;;;;;5011154;28;20034;-46
2022/03/07 06:29:33;;;;;;;23.93;13.97;;;;;;;;;;4998208;28;20476;-45
2022/03/07 06:31:59;;;;;;;22.77;14.63;;;;;;;;;;4998607;28;20030;-45
2022/03/07 06:34:25;;;;;;;23.47;14.57;;;;;;;;;;4998067;28;20034;-45
2022/03/07 06:36:51;;;;;;;19.80;13.20;;;;;;;;;;5010781;28;20042;-45
2022/03/07 06:39:18;;;;;;;23.07;14.00;;;;;;;;;;5010011;28;20038;-48
2022/03/07 06:41:44;;;;;;;22.57;13.60;;;;;;;;;;4988340;28;20050;-46
2022/03/07 06:44:10;;;;;;;22.93;13.40;;;;;;;;;;4988722;28;20027;-48
2022/03/07 06:46:36;;;;;;;22.20;13.80;;;;;;;;;;4990472;28;20038;-47
2022/03/07 06:49:02;;;;;;;22.67;14.17;;;;;;;;;;4997186;28;20023;-45
2022/03/07 06:51:28;;;;;;;22.90;13.57;;;;;;;;;;5002070;28;20034;-47
2022/03/07 06:53:54;;;;;;;23.13;13.93;;;;;;;;;;4991553;28;20126;-48
2022/03/07 06:56:20;;;;;;;22.90;13.60;;;;;;;;;;4996234;28;20605;-48
2022/03/07 06:58:46;;;;;;;22.57;13.07;;;;;;;;;;4993869;28;20030;-48
2022/03/07 07:01:12;;;;;;;21.57;14.60;;;;;;;;;;4997011;28;20074;-46
2022/03/07 07:03:38;;;;;;;20.30;13.90;;;;;;;;;;4991199;28;20056;-45
2022/03/07 07:06:04;;;;;;;21.50;13.30;;;;;;;;;;4993995;28;20464;-45
2022/03/07 07:08:30;;;;;;;17.63;13.10;;;;;;;;;;4992565;28;20031;-50
2022/03/07 07:10:56;;;;;;;21.37;13.97;;;;;;;;;;4993306;28;20032;-48
2022/03/07 07:13:22;;;;;;;21.60;13.53;;;;;;;;;;4989018;28;20034;-50
2022/03/07 07:15:55;;;;;;;23.27;14.00;;;;;;;;;;4991115;28;20077;-50
2022/03/07 07:18:21;;;;;;;21.20;13.07;;;;;;;;;;4995872;28;20037;-50
2022/03/07 07:20:47;;;;;;;21.53;14.50;;;;;;;;;;4989234;28;20030;-49
2022/03/07 07:23:13;;;;;;;22.23;13.50;;;;;;;;;;4998237;28;20543;-51
2022/03/07 07:25:39;;;;;;;20.53;13.63;;;;;;;;;;4985942;28;20113;-49
2022/03/07 07:28:05;;;;;;;21.70;13.63;;;;;;;;;;5004253;28;20032;-45
2022/03/07 07:30:31;;;;;;;20.50;14.07;;;;;;;;;;4999445;28;20038;-47
2022/03/07 07:32:57;;;;;;;19.57;12.33;;;;;;;;;;5009144;28;20511;-52
2022/03/07 07:35:23;;;;;;;18.23;12.10;;;;;;;;;;4980365;28;20022;-45
2022/03/07 07:37:49;;;;;;;21.73;12.23;;;;;;;;;;4998486;28;20018;-49
2022/03/07 07:40:15;;;;;;;22.00;13.53;;;;;;;;;;4988331;28;20026;-46
2022/03/07 07:42:41;;;;;;;24.50;14.10;;;;;;;;;;5005516;28;20395;-45
2022/03/07 07:45:08;;;;;;;26.33;13.97;;;;;;;;;;4990089;28;20026;-46
2022/03/07 07:47:34;;;;;;;22.17;14.23;;;;;;;;;;5002305;28;20030;-49
2022/03/07 07:50:00;;;;;;;20.27;13.13;;;;;;;;;;5004012;28;20116;-47
2022/03/07 07:52:26;;;;;;;20.13;12.03;;;;;;;;;;5004565;28;20097;-48
2022/03/07 07:54:52;;;;;;;17.10;12.47;;;;;;;;;;4986402;28;20039;-46
2022/03/07 07:57:18;;;;;;;30.17;14.63;;;;;;;;;;4997500;28;20040;-48
2022/03/07 07:59:44;;;;;;;38.13;13.00;;;;;;;;;;5001878;28;20109;-52
2022/03/07 08:02:11;;;;;;;28.37;13.40;;;;;;;;;;5002181;28;20033;-48
2022/03/07 08:07:41;;;;;;;26.03;14.20;;;;;;;;;;4998902;28;20032;-48
2022/03/07 08:10:08;;;;;;;20.13;14.00;;;;;;;;;;5010742;28;20608;-53
2022/03/07 08:12:34;;;;;;;21.90;12.90;;;;;;;;;;5000295;28;20018;-46
2022/03/07 08:15:00;;;;;;;22.60;13.93;;;;;;;;;;4994699;28;20437;-46
2022/03/07 08:17:26;;;;;;;18.80;12.30;;;;;;;;;;5015443;28;20099;-47
2022/03/07 08:19:52;;;;;;;22.50;12.80;;;;;;;;;;5010529;28;20030;-47
2022/03/07 08:22:18;;;;;;;20.87;13.03;;;;;;;;;;5005315;28;20511;-48
2022/03/07 08:24:44;;;;;;;24.27;12.90;;;;;;;;;;4983558;28;20029;-49
2022/03/07 08:27:10;;;;;;;21.10;13.70;;;;;;;;;;4994893;28;20033;-50
2022/03/07 08:29:36;;;;;;;23.23;12.80;;;;;;;;;;4999105;28;20032;-46
2022/03/07 08:32:02;;;;;;;19.83;12.50;;;;;;;;;;5007153;28;20469;-49
2022/03/07 08:34:28;;;;;;;24.13;14.30;;;;;;;;;;4997430;28;20130;-49
2022/03/07 08:36:54;;;;;;;21.23;14.53;;;;;;;;;;5011556;28;20057;-46
2022/03/07 08:39:20;;;;;;;22.70;13.73;;;;;;;;;;4996793;28;20057;-48
2022/03/07 08:41:46;;;;;;;17.87;13.33;;;;;;;;;;4997731;28;20030;-47
2022/03/07 08:44:12;;;;;;;18.23;12.40;;;;;;;;;;4997563;28;20031;-45
2022/03/07 08:46:39;;;;;;;22.67;13.63;;;;;;;;;;4995026;28;20131;-46
2022/03/07 08:49:05;;;;;;;28.93;13.83;;;;;;;;;;5007879;28;20038;-45
2022/03/07 08:51:31;;;;;;;24.87;12.13;;;;;;;;;;4998611;28;20472;-50
2022/03/07 08:53:57;;;;;;;20.20;12.97;;;;;;;;;;4999950;28;20522;-47
2022/03/07 08:56:23;;;;;;;20.47;12.50;;;;;;;;;;5005465;28;20071;-47
2022/03/07 08:58:49;;;;;;;20.03;12.97;;;;;;;;;;5000010;28;20026;-48
2022/03/07 09:01:18;;;;;;;20.37;12.30;;;;;;;;;;4988977;28;20034;-47
2022/03/07 09:03:45;;;;;;;20.87;12.87;;;;;;;;;;4993006;28;20033;-48
2022/03/07 09:06:11;;;;;;;20.90;13.03;;;;;;;;;;4998934;28;20540;-46
2022/03/07 09:08:37;;;;;;;20.87;12.53;;;;;;;;;;4997512;28;20043;-48
2022/03/07 09:11:03;;;;;;;20.27;12.80;;;;;;;;;;4994838;28;20572;-46
2022/03/07 09:13:29;;;;;;;22.27;11.97;;;;;;;;;;5004285;28;20030;-48
2022/03/07 09:15:55;;;;;;;27.97;13.33;;;;;;;;;;4995432;28;20077;-50
2022/03/07 09:18:22;;;;;;;25.50;15.07;;;;;;;;;;4983331;28;20031;-49
2022/03/07 09:20:48;;;;;;;19.80;13.17;;;;;;;;;;4990025;28;20066;-45
2022/03/07 09:23:14;;;;;;;19.23;13.30;;;;;;;;;;4997197;28;20038;-49
2022/03/07 09:25:40;;;;;;;22.83;13.97;;;;;;;;;;5001637;28;20029;-48
2022/03/07 09:28:06;;;;;;;20.93;13.50;;;;;;;;;;4989990;28;20489;-46
2022/03/07 09:30:33;;;;;;;28.00;14.87;;;;;;;;;;4989634;28;20019;-48
2022/03/07 09:33:03;;;;;;;23.13;14.37;;;;;;;;;;5006765;28;20125;-47
2022/03/07 09:35:29;;;;;;;25.37;14.00;;;;;;;;;;4999119;28;20459;-50
2022/03/07 09:37:55;;;;;;;24.67;14.10;;;;;;;;;;5005811;28;20053;-48
2022/03/07 09:40:21;;;;;;;21.37;13.53;;;;;;;;;;4987721;28;20039;-47
2022/03/07 09:42:47;;;;;;;23.13;13.77;;;;;;;;;;4998053;28;20041;-47
2022/03/07 09:45:13;;;;;;;19.97;12.63;;;;;;;;;;4997408;28;20034;-49
2022/03/07 09:47:40;;;;;;;22.47;13.73;;;;;;;;;;5008941;28;20101;-45
2022/03/07 09:50:08;;;;;;;24.93;13.43;;;;;;;;;;4986991;28;20073;-47
2022/03/07 09:52:35;;;;;;;24.27;12.73;;;;;;;;;;4997069;28;20073;-46
2022/03/07 09:55:01;;;;;;;21.17;12.03;;;;;;;;;;5003993;28;20096;-46
2022/03/07 09:57:29;;;;;;;21.30;12.77;;;;;;;;;;5011289;28;20030;-49
2022/03/07 09:59:55;;;;;;;21.57;12.40;;;;;;;;;;5005610;28;20023;-46
2022/03/07 10:02:24;;;;;;;23.83;12.70;;;;;;;;;;4995912;28;20492;-47
2022/03/07 10:04:51;;;;;;;19.03;12.13;;;;;;;;;;4990331;28;20023;-46
2022/03/07 10:07:17;;;;;;;21.87;12.40;;;;;;;;;;4978461;28;20030;-48
2022/03/07 10:09:44;;;;;;;18.93;12.73;;;;;;;;;;4985445;28;20476;-48
2022/03/07 10:12:10;;;;;;;20.77;13.07;;;;;;;;;;4995610;28;20033;-49
2022/03/07 10:14:42;;;;;;;14.83;11.57;;;;;;;;;;4993750;28;20106;-50
2022/03/07 10:17:21;;;;;;;20.30;12.10;;;;;;;;;;4994654;28;20037;-47
2022/03/07 10:19:48;;;;;;;16.50;11.80;;;;;;;;;;4990451;28;20108;-49
2022/03/07 10:22:19;;;;;;;23.17;12.80;;;;;;;;;;4998419;28;20034;-47
2022/03/07 10:24:45;;;;;;;19.10;12.43;;;;;;;;;;4997144;28;20022;-46
2022/03/07 10:27:11;;;;;;;16.77;12.20;;;;;;;;;;4995185;28;20065;-47
2022/03/07 10:29:47;;;;;;;20.17;12.83;;;;;;;;;;4984911;28;20050;-50
2022/03/07 10:32:17;;;;;;;21.37;12.70;;;;;;;;;;4984969;28;20060;-49
2022/03/07 10:34:43;;;;;;;19.70;12.70;;;;;;;;;;4995518;28;20136;-54
2022/03/07 10:37:09;;;;;;;18.63;12.20;;;;;;;;;;4996872;28;20029;-56
2022/03/07 10:39:36;;;;;;;17.63;12.77;;;;;;;;;;4993987;28;20041;-53
2022/03/07 10:42:02;;;;;;;20.47;13.40;;;;;;;;;;5003223;28;20430;-53
2022/03/07 10:44:30;;;;;;;21.43;14.60;;;;;;;;;;4998670;28;20038;-47
2022/03/07 10:47:06;;;;;;;18.77;13.03;;;;;;;;;;4995773;28;20033;-55
2022/03/07 10:49:33;;;;;;;18.13;12.30;;;;;;;;;;4989909;28;20077;-51
2022/03/07 10:51:59;;;;;;;20.90;14.27;;;;;;;;;;4988376;28;20422;-53
2022/03/07 10:54:25;;;;;;;19.53;14.70;;;;;;;;;;4994349;28;20419;-51
2022/03/07 10:56:52;;;;;;;20.77;13.63;;;;;;;;;;4994003;28;20081;-50
2022/03/07 10:59:27;;;;;;;20.33;14.43;;;;;;;;;;4980482;28;20074;-51
2022/03/07 11:02:00;;;;;;;21.23;14.97;;;;;;;;;;4998456;28;20133;-47
2022/03/07 11:04:27;;;;;;;19.90;14.37;;;;;;;;;;4990395;28;20049;-49
2022/03/07 11:06:53;;;;;;;19.13;12.43;;;;;;;;;;4997894;28;20087;-48
2022/03/07 11:09:19;;;;;;;20.70;14.00;;;;;;;;;;5001124;28;20064;-48
2022/03/07 11:11:45;;;;;;;22.60;14.23;;;;;;;;;;4985269;28;20034;-50
2022/03/07 11:14:12;;;;;;;20.63;14.20;;;;;;;;;;5009702;28;20026;-48
2022/03/07 11:16:39;;;;;;;19.27;14.07;;;;;;;;;;5000414;28;20034;-47
2022/03/07 11:19:07;;;;;;;23.30;15.43;;;;;;;;;;4999706;28;20034;-47
2022/03/07 11:21:33;;;;;;;21.13;14.70;;;;;;;;;;4990430;28;20073;-47
2022/03/07 11:23:59;;;;;;;21.33;13.77;;;;;;;;;;5000492;28;20037;-48
2022/03/07 11:26:26;;;;;;;21.10;13.80;;;;;;;;;;5003266;28;20038;-46
2022/03/07 11:28:52;;;;;;;22.63;14.70;;;;;;;;;;4999028;28;20067;-48
2022/03/07 11:31:32;;;;;;;19.90;12.47;;;;;;;;;;4995492;28;20053;-54
2022/03/07 11:33:58;;;;;;;19.57;14.10;;;;;;;;;;4983918;28;20037;-48
2022/03/07 11:36:26;;;;;;;20.90;14.00;;;;;;;;;;5003402;28;20038;-48
2022/03/07 11:38:56;;;;;;;20.23;13.90;;;;;;;;;;4998645;28;20026;-48
2022/03/07 11:41:29;;;;;;;22.70;15.47;;;;;;;;;;4976605;28;20029;-47
2022/03/07 11:43:56;;;;;;;21.10;14.67;;;;;;;;;;4996743;28;20034;-51
2022/03/07 11:46:23;;;;;;;23.60;15.43;;;;;;;;;;5000208;28;20026;-47
2022/03/07 11:48:49;;;;;;;20.07;14.57;;;;;;;;;;5003239;28;20025;-47
2022/03/07 11:51:16;;;;;;;21.10;14.97;;;;;;;;;;4989587;28;20110;-49
2022/03/07 11:53:43;;;;;;;21.73;15.50;;;;;;;;;;4997773;28;20038;-49
2022/03/07 11:56:15;;;;;;;22.07;15.03;;;;;;;;;;5006868;28;20120;-48
2022/03/07 11:58:48;;;;;;;22.70;14.27;;;;;;;;;;4997825;28;20022;-47
2022/03/07 12:01:14;;;;;;;23.97;15.40;;;;;;;;;;4989617;28;20548;-47
2022/03/07 12:03:40;;;;;;;21.50;15.60;;;;;;;;;;4997901;28;20476;-48
2022/03/07 12:06:11;;;;;;;21.17;15.47;;;;;;;;;;5006314;28;20018;-47
2022/03/07 12:08:43;;;;;;;23.03;15.50;;;;;;;;;;4994847;28;20035;-48
2022/03/07 12:11:10;;;;;;;23.17;15.27;;;;;;;;;;4998212;28;20104;-49
2022/03/07 12:13:46;;;;;;;21.40;15.07;;;;;;;;;;4993323;28;20022;-48
2022/03/07 12:16:12;;;;;;;21.57;15.87;;;;;;;;;;4992132;28;20027;-52
2022/03/07 12:18:38;;;;;;;22.10;16.57;;;;;;;;;;4995394;28;20126;-48
2022/03/07 12:21:04;;;;;;;20.57;15.57;;;;;;;;;;4992570;28;20030;-50
2022/03/07 12:23:33;;;;;;;21.00;15.50;;;;;;;;;;4998903;28;20033;-51
2022/03/07 12:26:02;;;;;;;27.57;16.43;;;;;;;;;;4988514;28;20039;-49
2022/03/07 12:28:32;;;;;;;20.67;15.60;;;;;;;;;;4988012;28;20039;-52
2022/03/07 12:30:59;;;;;;;23.37;16.73;;;;;;;;;;4995995;28;20033;-49
2022/03/07 12:33:25;;;;;;;23.03;16.43;;;;;;;;;;5001209;28;20022;-51
2022/03/07 12:36:01;;;;;;;21.00;17.03;;;;;;;;;;4992398;28;20396;-48
2022/03/07 12:38:27;;;;;;;22.77;16.57;;;;;;;;;;5003641;28;20502;-48
2022/03/07 12:40:54;;;;;;;24.70;16.57;;;;;;;;;;5000027;28;20031;-52
2022/03/07 12:43:21;;;;;;;21.70;17.47;;;;;;;;;;4998378;28;20041;-53
2022/03/07 12:45:47;;;;;;;22.33;16.77;;;;;;;;;;4990719;28;20392;-52
2022/03/07 12:48:15;;;;;;;24.00;16.57;;;;;;;;;;4983122;28;20041;-51
2022/03/07 12:50:41;;;;;;;22.03;16.80;;;;;;;;;;4985822;28;20026;-53
2022/03/07 12:53:12;;;;;;;22.87;16.40;;;;;;;;;;4996384;28;20399;-51
2022/03/07 12:55:38;;;;;;;25.13;16.07;;;;;;;;;;5004148;28;20041;-50
2022/03/07 12:58:04;;;;;;;26.13;16.77;;;;;;;;;;4987440;28;20022;-51
2022/03/07 13:00:32;;;;;;;23.70;16.83;;;;;;;;;;4994814;28;20031;-49
2022/03/07 13:02:58;;;;;;;24.67;17.10;;;;;;;;;;4994017;28;20053;-49
2022/03/07 13:05:26;;;;;;;25.73;17.05;;;;;;;;;;4998808;28;20021;-52
2022/03/07 13:07:55;;;;;;;23.02;17.38;;;;;;;;;;4995914;28;20030;-50
2022/03/07 13:10:23;;;;;;;24.13;17.60;;;;;;;;;;4978344;28;20034;-51
2022/03/07 13:12:51;;;;;;;24.50;16.77;;;;;;;;;;5004934;28;20019;-51
2022/03/07 13:15:17;;;;;;;27.85;18.25;;;;;;;;;;5005755;28;20030;-52
2022/03/07 13:17:43;;;;;;;19.88;16.35;;;;;;;;;;5004069;28;20049;-50
2022/03/07 13:20:14;;;;;;;25.08;18.25;;;;;;;;;;4976786;28;20384;-51
2022/03/07 13:22:40;;;;;;;22.98;16.40;;;;;;;;;;5002057;28;20038;-53
2022/03/07 13:25:06;;;;;;;23.80;16.52;;;;;;;;;;5001307;28;20031;-53
2022/03/07 13:27:33;;;;;;;28.05;17.67;;;;;;;;;;4989323;28;20080;-49
2022/03/07 13:30:07;;;;;;;22.55;17.90;;;;;;;;;;4992279;28;20473;-49
2022/03/07 13:32:38;;;;;;;23.92;16.20;;;;;;;;;;5004796;28;20040;-54
2022/03/07 13:35:04;;;;;;;27.73;17.88;;;;;;;;;;4984147;28;20029;-53
2022/03/07 13:37:43;;;;;;;22.85;17.02;;;;;;;;;;5008981;28;20033;-50
2022/03/07 13:40:11;;;;;;;24.77;18.42;;;;;;;;;;4973723;28;20050;-48
2022/03/07 13:42:39;;;;;;;28.63;18.45;;;;;;;;;;5007171;28;20092;-47
2022/03/07 13:45:08;;;;;;;23.80;17.58;;;;;;;;;;4993047;28;20027;-50
2022/03/07 13:47:35;;;;;;;29.98;18.00;;;;;;;;;;4997002;28;20029;-48
2022/03/07 13:50:06;;;;;;;24.60;17.92;;;;;;;;;;4988441;28;20034;-51
2022/03/07 13:52:36;;;;;;;23.83;17.45;;;;;;;;;;4996875;28;20054;-48
2022/03/07 13:55:04;;;;;;;22.25;17.27;;;;;;;;;;5004772;28;20069;-47
2022/03/07 13:57:34;;;;;;;21.98;17.25;;;;;;;;;;5009048;28;20014;-51
2022/03/07 14:00:04;;;;;;;24.00;17.98;;;;;;;;;;4987713;28;20104;-48
2022/03/07 14:02:31;;;;;;;22.90;16.88;;;;;;;;;;4996019;28;20030;-48
2022/03/07 14:04:58;;;;;;;23.97;17.33;;;;;;;;;;4991375;28;20030;-47
2022/03/07 14:07:28;;;;;;;22.67;16.95;;;;;;;;;;4989758;28;20022;-47
2022/03/07 14:10:14;;;;;;;30.40;18.25;;;;;;;;;;5004367;28;20038;-47
2022/03/07 14:12:41;;;;;;;26.13;18.30;;;;;;;;;;4975350;28;20037;-47
2022/03/07 14:15:11;;;;;;;28.60;17.40;;;;;;;;;;4987747;28;20109;-53
2022/03/07 14:17:39;;;;;;;23.92;17.40;;;;;;;;;;4992261;28;20030;-47
2022/03/07 14:20:08;;;;;;;37.25;19.25;;;;;;;;;;5002291;28;20026;-47
2022/03/07 14:22:35;;;;;;;25.83;16.90;;;;;;;;;;5004851;28;20385;-49
2022/03/07 14:25:01;;;;;;;26.05;17.90;;;;;;;;;;5005755;28;20083;-48
2022/03/07 14:27:30;;;;;;;23.35;18.50;;;;;;;;;;5012458;28;20057;-47
2022/03/07 14:29:56;;;;;;;26.83;18.42;;;;;;;;;;5005863;28;20026;-47